createdAt,value
2023-02-14T00:00:33.110Z,46.11
2023-02-14T00:02:59.833Z,46.19
2023-02-14T00:05:26.579Z,46.04
2023-02-14T00:07:53.278Z,46.28
2023-02-14T00:10:19.964Z,46.10
2023-02-14T00:12:46.639Z,46.18
2023-02-14T00:15:13.324Z,46.03
2023-02-14T00:17:40.008Z,46.17
2023-02-14T00:20:06.708Z,46.03
2023-02-14T00:22:33.384Z,46.09
2023-02-14T00:25:00.086Z,45.98
2023-02-14T00:27:26.760Z,46.06
2023-02-14T00:29:53.466Z,46.04
2023-02-14T00:32:20.233Z,46.17
2023-02-14T00:34:47.164Z,46.06
2023-02-14T00:37:13.855Z,46.11
2023-02-14T00:39:40.545Z,45.95
2023-02-14T00:42:07.233Z,46.15
2023-02-14T00:44:33.925Z,46.01
2023-02-14T00:47:00.626Z,46.14
2023-02-14T00:49:27.696Z,46.07
2023-02-14T00:51:54.388Z,46.11
2023-02-14T00:54:21.071Z,46.06
2023-02-14T00:56:47.773Z,46.14
2023-02-14T00:59:14.445Z,45.95
2023-02-14T01:01:41.796Z,46.13
2023-02-14T01:04:08.497Z,45.96
2023-02-14T01:06:35.206Z,46.00
2023-02-14T01:09:01.904Z,45.92
2023-02-14T01:11:30.232Z,46.02
2023-02-14T01:13:57.109Z,45.95
2023-02-14T01:16:23.864Z,46.03
2023-02-14T01:18:50.594Z,45.93
2023-02-14T01:21:17.474Z,46.02
2023-02-14T01:23:44.160Z,46.02
2023-02-14T01:26:11.084Z,46.06
2023-02-14T01:28:37.814Z,45.99
2023-02-14T01:31:04.772Z,46.03
2023-02-14T01:33:31.701Z,45.99
2023-02-14T01:35:58.605Z,46.09
2023-02-14T01:38:25.286Z,45.88
2023-02-14T01:40:52.178Z,46.02
2023-02-14T01:43:18.840Z,45.97
2023-02-14T01:45:45.556Z,45.97
2023-02-14T01:48:12.270Z,45.90
2023-02-14T01:50:38.956Z,46.02
2023-02-14T01:53:05.652Z,45.90
2023-02-14T01:55:32.334Z,46.05
2023-02-14T01:57:59.049Z,45.87
2023-02-14T02:00:25.964Z,45.89
2023-02-14T02:02:52.655Z,45.90
2023-02-14T02:05:19.565Z,46.07
2023-02-14T02:07:46.279Z,45.93
2023-02-14T02:10:12.955Z,45.93
2023-02-14T02:12:39.643Z,45.95
2023-02-14T02:15:06.317Z,45.99
2023-02-14T02:17:32.999Z,45.77
2023-02-14T02:19:59.695Z,46.01
2023-02-14T02:22:26.389Z,45.88
2023-02-14T02:24:53.049Z,46.02
2023-02-14T02:27:19.902Z,45.78
2023-02-14T02:29:46.543Z,45.93
2023-02-14T02:32:31.695Z,45.89
2023-02-14T02:34:58.339Z,45.98
2023-02-14T02:37:24.984Z,45.89
2023-02-14T02:39:51.619Z,45.93
2023-02-14T02:42:18.646Z,45.83
2023-02-14T02:44:45.508Z,45.86
2023-02-14T02:47:12.353Z,45.85
2023-02-14T02:49:38.988Z,45.85
2023-02-14T02:52:05.634Z,45.81
2023-02-14T02:54:32.275Z,45.75
2023-02-14T02:56:59.177Z,46.05
2023-02-14T02:59:25.826Z,45.70
2023-02-14T03:01:52.607Z,45.91
2023-02-14T03:04:19.348Z,45.84
2023-02-14T03:06:45.998Z,45.95
2023-02-14T03:09:12.645Z,45.77
2023-02-14T03:11:39.282Z,45.82
2023-02-14T03:14:05.921Z,45.73
2023-02-14T03:16:32.566Z,45.88
2023-02-14T03:18:59.214Z,45.82
2023-02-14T03:21:25.858Z,45.91
2023-02-14T03:23:52.532Z,45.73
2023-02-14T03:26:19.187Z,45.80
2023-02-14T03:28:46.037Z,45.75
2023-02-14T03:31:12.765Z,45.89
2023-02-14T03:33:39.671Z,45.67
2023-02-14T03:36:06.513Z,45.84
2023-02-14T03:38:33.150Z,45.64
2023-02-14T03:41:00.280Z,45.84
2023-02-14T03:43:27.099Z,45.74
2023-02-14T03:45:53.748Z,45.92
2023-02-14T03:48:20.396Z,45.73
2023-02-14T03:50:47.040Z,45.77
2023-02-14T03:53:13.681Z,45.74
2023-02-14T03:55:40.324Z,45.84
2023-02-14T03:58:06.954Z,45.74
2023-02-14T04:00:33.602Z,45.66
2023-02-14T04:03:00.262Z,45.85
2023-02-14T04:05:26.915Z,45.66
2023-02-14T04:07:53.552Z,45.72
2023-02-14T04:10:20.188Z,45.70
2023-02-14T04:12:46.835Z,45.77
2023-02-14T04:15:13.501Z,45.73
2023-02-14T04:17:40.147Z,45.82
2023-02-14T04:20:07.027Z,45.65
2023-02-14T04:22:33.704Z,45.88
2023-02-14T04:25:00.329Z,45.40
2023-02-14T04:27:26.985Z,45.68
2023-02-14T04:29:53.900Z,45.70
2023-02-14T04:32:20.662Z,45.83
2023-02-14T04:34:47.333Z,45.72
2023-02-14T04:37:13.971Z,45.62
2023-02-14T04:39:40.823Z,45.65
2023-02-14T04:42:07.503Z,45.56
2023-02-14T04:44:34.133Z,45.61
2023-02-14T04:47:00.779Z,45.60
2023-02-14T04:49:27.635Z,45.54
2023-02-14T04:51:54.274Z,45.65
2023-02-14T04:54:21.135Z,45.60
2023-02-14T04:56:47.776Z,45.69
2023-02-14T04:59:14.623Z,45.64
2023-02-14T05:01:41.295Z,45.75
2023-02-14T05:04:07.983Z,45.54
2023-02-14T05:06:34.625Z,45.69
2023-02-14T05:09:01.266Z,45.48
2023-02-14T05:11:27.931Z,45.74
2023-02-14T05:13:54.562Z,45.52
2023-02-14T05:16:21.464Z,45.65
2023-02-14T05:18:48.142Z,45.51
2023-02-14T05:21:14.985Z,45.70
2023-02-14T05:23:41.626Z,45.46
2023-02-14T05:26:08.259Z,45.62
2023-02-14T05:28:34.918Z,45.50
2023-02-14T05:31:02.287Z,45.52
2023-02-14T05:33:29.190Z,45.67
2023-02-14T05:35:55.840Z,45.54
2023-02-14T05:38:22.479Z,45.58
2023-02-14T05:40:49.327Z,45.48
2023-02-14T05:43:15.968Z,45.61
2023-02-14T05:45:42.662Z,45.42
2023-02-14T05:48:09.326Z,45.76
2023-02-14T05:50:35.988Z,45.42
2023-02-14T05:53:02.637Z,45.56
2023-02-14T05:55:29.264Z,45.38
2023-02-14T05:57:55.904Z,45.62
2023-02-14T06:00:22.538Z,45.54
2023-02-14T06:02:49.632Z,45.48
2023-02-14T06:05:16.237Z,45.56
2023-02-14T06:07:42.894Z,45.50
2023-02-14T06:10:09.785Z,45.65
2023-02-14T06:12:36.452Z,45.36
2023-02-14T06:15:03.086Z,45.60
2023-02-14T06:17:29.719Z,45.44
2023-02-14T06:19:56.363Z,45.59
2023-02-14T06:22:23.019Z,45.44
2023-02-14T06:24:49.655Z,45.42
2023-02-14T06:27:16.558Z,45.52
2023-02-14T06:29:43.250Z,45.41
2023-02-14T06:32:10.057Z,45.43
2023-02-14T06:34:36.828Z,45.43
2023-02-14T06:37:03.470Z,45.52
2023-02-14T06:39:30.124Z,45.42
2023-02-14T06:41:56.776Z,45.56
2023-02-14T06:44:23.418Z,45.28
2023-02-14T06:46:50.048Z,45.52
2023-02-14T06:49:16.902Z,45.32
2023-02-14T06:51:43.552Z,45.42
2023-02-14T06:54:10.190Z,45.37
2023-02-14T06:56:37.809Z,45.31
2023-02-14T06:59:04.445Z,45.37
2023-02-14T07:01:31.113Z,45.38
2023-02-14T07:03:58.011Z,45.56
2023-02-14T07:09:11.921Z,45.56
2023-02-14T07:11:38.582Z,45.21
2023-02-14T07:14:05.223Z,45.40
2023-02-14T07:16:31.870Z,45.36
2023-02-14T07:18:58.528Z,45.37
2023-02-14T07:21:25.255Z,45.31
2023-02-14T07:23:51.923Z,45.33
2023-02-14T07:26:18.800Z,45.45
2023-02-14T07:28:45.449Z,45.28
2023-02-14T07:31:12.206Z,45.34
2023-02-14T07:33:38.942Z,45.24
2023-02-14T07:36:05.597Z,45.39
2023-02-14T07:38:32.243Z,45.19
2023-02-14T07:40:59.572Z,45.41
2023-02-14T07:43:26.359Z,45.20
2023-02-14T07:45:53.016Z,45.38
2023-02-14T07:48:19.688Z,45.24
2023-02-14T07:50:46.329Z,45.38
2023-02-14T07:53:13.010Z,45.28
2023-02-14T07:55:39.642Z,45.24
2023-02-14T07:58:06.273Z,45.41
2023-02-14T08:00:32.905Z,45.24
2023-02-14T08:03:00.047Z,45.40
2023-02-14T08:05:26.809Z,45.12
2023-02-14T08:07:53.509Z,45.42
2023-02-14T08:10:20.243Z,45.26
2023-02-14T08:12:46.900Z,45.42
2023-02-14T08:15:13.560Z,45.21
2023-02-14T08:17:40.199Z,45.27
2023-02-14T08:20:06.842Z,45.25
2023-02-14T08:22:33.473Z,45.24
2023-02-14T08:25:00.137Z,45.33
2023-02-14T08:27:26.811Z,45.12
2023-02-14T08:29:55.103Z,45.32
2023-02-14T08:32:21.880Z,45.22
2023-02-14T08:34:48.567Z,45.26
2023-02-14T08:37:15.215Z,45.32
2023-02-14T08:39:41.855Z,45.29
2023-02-14T08:42:08.533Z,45.29
2023-02-14T08:44:35.160Z,45.25
2023-02-14T08:47:01.887Z,45.45
2023-02-14T08:49:28.604Z,45.57
2023-02-14T08:51:55.266Z,45.66
2023-02-14T08:54:21.922Z,45.75
2023-02-14T08:56:48.598Z,45.86
2023-02-14T08:59:15.293Z,45.81
2023-02-14T09:01:41.983Z,45.83
2023-02-14T09:04:08.672Z,45.82
2023-02-14T09:06:35.358Z,45.37
2023-02-14T09:09:02.673Z,45.37
2023-02-14T09:11:29.427Z,45.15
2023-02-14T09:13:57.810Z,45.40
2023-02-14T09:16:24.484Z,45.22
2023-02-14T09:18:51.182Z,45.26
2023-02-14T09:21:17.848Z,45.26
2023-02-14T09:23:44.489Z,45.24
2023-02-14T09:26:11.156Z,45.28
2023-02-14T09:28:38.082Z,45.10
2023-02-14T09:31:04.809Z,45.41
2023-02-14T09:33:31.485Z,45.21
2023-02-14T09:35:58.126Z,45.23
2023-02-14T09:38:24.775Z,45.23
2023-02-14T09:40:51.468Z,45.28
2023-02-14T09:43:18.105Z,45.17
2023-02-14T09:45:44.792Z,45.12
2023-02-14T09:48:11.500Z,45.08
2023-02-14T09:50:38.141Z,45.01
2023-02-14T09:53:04.800Z,45.05
2023-02-14T09:55:31.674Z,44.92
2023-02-14T09:57:58.319Z,44.95
2023-02-14T10:00:24.953Z,44.95
2023-02-14T10:02:51.589Z,45.04
2023-02-14T10:05:18.232Z,45.03
2023-02-14T10:07:44.887Z,45.06
2023-02-14T10:10:11.536Z,45.03
2023-02-14T10:12:38.182Z,44.89
2023-02-14T10:15:05.382Z,44.98
2023-02-14T10:17:32.265Z,44.92
2023-02-14T10:19:58.911Z,45.04
2023-02-14T10:22:25.550Z,44.78
2023-02-14T10:24:52.193Z,44.86
2023-02-14T10:27:18.828Z,44.83
2023-02-14T10:29:45.478Z,44.84
2023-02-14T10:32:12.158Z,44.98
2023-02-14T10:34:38.815Z,44.87
2023-02-14T10:37:05.472Z,44.97
2023-02-14T10:39:32.109Z,44.87
2023-02-14T10:41:58.756Z,44.88
2023-02-14T10:44:25.404Z,44.91
2023-02-14T10:46:52.068Z,44.93
2023-02-14T10:49:18.711Z,44.97
2023-02-14T10:51:45.369Z,44.86
2023-02-14T10:54:12.197Z,45.00
2023-02-14T10:56:38.848Z,44.93
2023-02-14T10:59:05.486Z,44.90
2023-02-14T11:01:32.151Z,45.04
2023-02-14T11:03:58.848Z,44.92
2023-02-14T11:06:25.527Z,45.21
2023-02-14T11:08:52.192Z,45.50
2023-02-14T11:11:18.855Z,45.71
2023-02-14T11:13:45.505Z,45.21
2023-02-14T11:16:12.154Z,45.34
2023-02-14T11:18:39.005Z,45.08
2023-02-14T11:21:05.640Z,45.78
2023-02-14T11:23:32.275Z,46.33
2023-02-14T11:25:59.230Z,46.95
2023-02-14T11:28:26.062Z,46.99
2023-02-14T11:30:52.978Z,47.07
2023-02-14T11:33:19.633Z,47.06
2023-02-14T11:37:32.525Z,47.36
2023-02-14T11:39:59.161Z,47.22
2023-02-14T11:42:25.804Z,47.16
2023-02-14T11:44:52.438Z,47.26
2023-02-14T11:47:19.201Z,47.31
2023-02-14T11:49:45.845Z,47.11
2023-02-14T11:52:12.489Z,47.05
2023-02-14T11:54:39.135Z,47.17
2023-02-14T11:57:05.779Z,46.96
2023-02-14T11:59:32.440Z,47.19
2023-02-14T12:01:59.078Z,47.38
2023-02-14T12:04:26.551Z,47.40
2023-02-14T12:06:53.236Z,47.49
2023-02-14T12:09:19.880Z,47.72
2023-02-14T12:11:46.522Z,47.34
2023-02-14T12:14:13.199Z,47.71
2023-02-14T12:16:39.845Z,47.34
2023-02-14T12:19:06.501Z,47.62
2023-02-14T12:21:33.173Z,47.44
2023-02-14T12:24:00.064Z,47.41
2023-02-14T12:26:26.732Z,47.24
2023-02-14T12:28:53.364Z,47.15
2023-02-14T12:31:20.088Z,47.99
2023-02-14T12:33:48.440Z,47.08
2023-02-14T12:36:16.828Z,46.64
2023-02-14T12:38:43.467Z,46.51
2023-02-14T12:41:10.115Z,46.29
2023-02-14T12:43:36.767Z,46.87
2023-02-14T12:46:03.845Z,47.15
2023-02-14T12:48:30.625Z,47.43
2023-02-14T12:50:57.325Z,47.55
2023-02-14T12:53:23.973Z,47.95
2023-02-14T12:55:50.631Z,47.89
2023-02-14T12:58:17.302Z,47.86
2023-02-14T13:00:43.940Z,46.63
2023-02-14T13:03:10.859Z,46.50
2023-02-14T13:05:37.502Z,46.25
2023-02-14T13:08:04.141Z,46.33
2023-02-14T13:10:31.279Z,46.34
2023-02-14T13:12:57.962Z,46.49
2023-02-14T13:15:24.702Z,46.46
2023-02-14T13:17:51.345Z,46.49
2023-02-14T13:20:17.983Z,46.53
2023-02-14T13:22:44.627Z,46.45
2023-02-14T13:25:11.257Z,46.62
2023-02-14T13:27:38.100Z,46.60
2023-02-14T13:30:04.794Z,46.47
2023-02-14T13:32:31.640Z,46.97
2023-02-14T13:34:58.312Z,47.58
2023-02-14T13:37:24.958Z,47.58
2023-02-14T13:39:51.604Z,48.05
2023-02-14T13:42:18.234Z,48.33
2023-02-14T13:44:44.888Z,48.05
2023-02-14T13:47:11.535Z,45.86
2023-02-14T13:49:38.410Z,45.09
2023-02-14T13:52:05.064Z,44.72
2023-02-14T13:54:31.727Z,43.54
2023-02-14T13:56:58.380Z,42.25
2023-02-14T13:59:25.252Z,40.66
2023-02-14T14:01:51.907Z,40.18
2023-02-14T14:04:18.612Z,41.13
2023-02-14T14:06:45.496Z,41.55
2023-02-14T14:09:12.135Z,38.38
2023-02-14T14:11:38.784Z,36.16
2023-02-14T14:14:05.433Z,36.37
2023-02-14T14:16:32.120Z,37.31
2023-02-14T14:18:58.789Z,36.95
2023-02-14T14:21:25.467Z,36.85
2023-02-14T14:23:52.322Z,37.18
2023-02-14T14:26:18.963Z,36.61
2023-02-14T14:28:45.819Z,36.70
2023-02-14T14:31:12.562Z,35.68
2023-02-14T14:33:39.259Z,35.82
2023-02-14T14:36:08.023Z,35.63
2023-02-14T14:38:35.050Z,35.54
2023-02-14T14:41:02.005Z,35.53
2023-02-14T14:43:28.702Z,35.06
2023-02-14T14:45:55.423Z,36.09
2023-02-14T14:48:22.132Z,33.99
2023-02-14T14:50:48.787Z,31.55
2023-02-14T14:53:15.427Z,31.48
2023-02-14T14:55:42.075Z,32.28
2023-02-14T14:58:08.754Z,33.64
2023-02-14T15:00:35.413Z,34.61
2023-02-14T15:03:03.122Z,36.75
2023-02-14T15:05:29.996Z,38.49
2023-02-14T15:07:56.662Z,39.37
2023-02-14T15:10:23.352Z,39.77
2023-02-14T15:12:50.018Z,39.83
2023-02-14T15:15:16.978Z,40.38
2023-02-14T15:17:43.675Z,40.42
2023-02-14T15:20:10.416Z,40.65
2023-02-14T15:22:37.386Z,41.15
2023-02-14T15:25:04.033Z,41.55
2023-02-14T15:27:30.688Z,41.47
2023-02-14T15:29:57.392Z,41.72
2023-02-14T15:36:20.416Z,42.70
2023-02-14T15:38:47.091Z,41.73
2023-02-14T15:41:13.792Z,42.48
2023-02-14T15:43:40.462Z,42.80
2023-02-14T15:46:07.203Z,42.93
2023-02-14T15:48:33.916Z,41.72
2023-02-14T15:51:01.069Z,42.72
2023-02-14T15:53:27.911Z,42.90
2023-02-14T15:55:54.859Z,41.81
2023-02-14T15:58:21.519Z,42.81
2023-02-14T16:00:48.169Z,43.10
2023-02-14T16:03:14.832Z,43.33
2023-02-14T16:05:41.514Z,43.38
2023-02-14T16:08:08.214Z,43.45
2023-02-14T16:10:34.873Z,43.50
2023-02-14T16:13:01.780Z,43.43
2023-02-14T16:15:28.512Z,43.56
2023-02-14T16:17:55.239Z,43.65
2023-02-14T16:20:21.915Z,42.75
2023-02-14T16:22:48.603Z,43.55
2023-02-14T16:25:15.293Z,40.80
2023-02-14T16:27:41.993Z,42.94
2023-02-14T16:30:08.677Z,43.33
2023-02-14T16:32:35.464Z,43.69
2023-02-14T16:35:02.355Z,43.67
2023-02-14T16:37:28.999Z,43.86
2023-02-14T16:39:55.658Z,43.90
2023-02-14T16:42:22.366Z,43.95
2023-02-14T16:44:49.021Z,44.00
2023-02-14T16:47:15.674Z,43.98
2023-02-14T16:49:42.315Z,43.95
2023-02-14T16:52:08.956Z,43.22
2023-02-14T16:54:35.594Z,43.52
2023-02-14T16:57:02.229Z,43.54
2023-02-14T16:59:28.898Z,43.75
2023-02-14T17:01:55.535Z,43.10
2023-02-14T17:04:22.162Z,40.40
2023-02-14T17:06:49.015Z,44.28
2023-02-14T17:09:15.673Z,43.68
2023-02-14T17:11:42.305Z,43.66
2023-02-14T17:14:08.977Z,43.61
2023-02-14T17:16:35.626Z,43.75
2023-02-14T17:19:02.265Z,42.37
2023-02-14T17:21:28.901Z,43.20
2023-02-14T17:23:55.757Z,43.39
2023-02-14T17:26:22.425Z,43.57
2023-02-14T17:30:53.228Z,43.69
2023-02-14T17:33:19.960Z,43.58
2023-02-14T17:35:46.623Z,43.67
2023-02-14T17:38:13.281Z,43.67
2023-02-14T17:40:39.931Z,43.78
2023-02-14T17:43:06.568Z,43.50
2023-02-14T17:45:33.205Z,43.56
2023-02-14T17:47:59.878Z,43.41
2023-02-14T17:50:26.518Z,43.41
2023-02-14T17:52:53.153Z,43.37
2023-02-14T17:55:19.807Z,43.49
2023-02-14T17:57:46.441Z,43.51
2023-02-14T18:00:13.514Z,43.25
2023-02-14T18:02:40.209Z,43.38
2023-02-14T18:05:06.902Z,43.23
2023-02-14T18:07:33.550Z,42.61
2023-02-14T18:10:00.199Z,42.99
2023-02-14T18:12:26.841Z,42.99
2023-02-14T18:14:53.471Z,43.09
2023-02-14T18:17:20.306Z,42.85
2023-02-14T18:19:46.946Z,42.39
2023-02-14T18:22:13.586Z,42.79
2023-02-14T18:24:40.240Z,42.95
2023-02-14T18:27:06.888Z,42.19
2023-02-14T18:29:33.524Z,42.57
2023-02-14T18:32:00.215Z,42.84
2023-02-14T18:34:26.888Z,42.80
2023-02-14T18:36:53.537Z,42.72
2023-02-14T18:39:20.189Z,42.70
2023-02-14T18:41:46.834Z,42.71
2023-02-14T18:44:13.477Z,42.81
2023-02-14T18:46:40.152Z,42.71
2023-02-14T18:49:06.785Z,42.67
2023-02-14T18:51:33.424Z,42.63
2023-02-14T18:54:00.061Z,42.70
2023-02-14T18:56:26.713Z,42.72
2023-02-14T18:58:53.361Z,42.65
2023-02-14T19:01:20.057Z,42.59
2023-02-14T19:03:46.700Z,42.53
2023-02-14T19:06:13.339Z,42.53
2023-02-14T19:08:39.985Z,42.60
2023-02-14T19:11:06.626Z,42.02
2023-02-14T19:13:33.274Z,42.50
2023-02-14T19:15:59.956Z,42.63
2023-02-14T19:18:27.001Z,42.65
2023-02-14T19:20:53.644Z,42.53
2023-02-14T19:23:20.285Z,42.83
2023-02-14T19:25:46.915Z,42.50
2023-02-14T19:28:13.583Z,42.60
2023-02-14T19:30:40.332Z,42.58
2023-02-14T19:33:07.024Z,42.63
2023-02-14T19:35:33.671Z,42.60
2023-02-14T19:38:00.308Z,42.51
2023-02-14T19:40:26.947Z,42.38
2023-02-14T19:42:53.596Z,42.52
2023-02-14T19:45:20.224Z,42.52
2023-02-14T19:47:47.670Z,42.66
2023-02-14T19:50:14.378Z,42.68
2023-02-14T19:52:41.030Z,42.71
2023-02-14T19:55:07.686Z,42.67
2023-02-14T19:57:34.319Z,42.64
2023-02-14T20:00:00.957Z,42.70
2023-02-14T20:02:27.629Z,42.66
2023-02-14T20:04:54.319Z,42.62
2023-02-14T20:07:20.965Z,42.66
2023-02-14T20:09:47.615Z,42.73
2023-02-14T20:12:14.258Z,41.91
2023-02-14T20:14:50.734Z,42.54
2023-02-14T20:17:18.366Z,42.64
2023-02-14T20:19:45.029Z,42.61
2023-02-14T20:22:11.718Z,42.61
2023-02-14T20:24:38.368Z,42.55
2023-02-14T20:27:05.001Z,42.50
2023-02-14T20:29:31.643Z,42.46
2023-02-14T20:31:58.297Z,42.39
2023-02-14T20:34:24.966Z,42.44
2023-02-14T20:36:51.603Z,42.46
2023-02-14T20:39:18.240Z,42.71
2023-02-14T20:41:44.884Z,42.66
2023-02-14T20:44:11.517Z,42.52
2023-02-14T20:46:38.164Z,42.51
2023-02-14T20:49:04.806Z,42.48
2023-02-14T20:51:31.471Z,42.49
2023-02-14T20:53:58.124Z,42.03
2023-02-14T20:56:24.794Z,42.37
2023-02-14T20:58:51.450Z,42.43
2023-02-14T21:01:18.130Z,42.43
2023-02-14T21:03:44.828Z,42.39
2023-02-14T21:06:11.517Z,42.41
2023-02-14T21:08:38.177Z,42.37
2023-02-14T21:11:04.819Z,42.42
2023-02-14T21:13:31.467Z,41.85
2023-02-14T21:15:58.165Z,42.37
2023-02-14T21:18:24.824Z,42.35
2023-02-14T21:20:51.491Z,42.34
2023-02-14T21:23:18.125Z,42.36
2023-02-14T21:25:44.775Z,42.51
2023-02-14T21:28:11.400Z,42.67
2023-02-14T21:30:38.080Z,42.76
2023-02-14T21:33:04.735Z,42.65
2023-02-14T21:35:31.391Z,42.61
2023-02-14T21:37:58.038Z,42.63
2023-02-14T21:40:24.763Z,42.54
2023-02-14T21:42:51.440Z,42.54
2023-02-14T21:45:18.077Z,42.43
2023-02-14T21:47:44.710Z,42.49
2023-02-14T21:50:11.350Z,42.46
2023-02-14T21:52:37.994Z,42.46
2023-02-14T21:55:04.626Z,42.50
2023-02-14T21:57:32.119Z,42.38
2023-02-14T21:59:58.778Z,42.41
2023-02-14T22:02:25.452Z,42.45
2023-02-14T22:04:52.080Z,42.35
2023-02-14T22:07:18.709Z,42.29
2023-02-14T22:09:45.351Z,42.40
2023-02-14T22:12:11.994Z,42.17
2023-02-14T22:14:38.629Z,42.35
2023-02-14T22:17:05.778Z,42.31
2023-02-14T22:19:32.411Z,42.25
2023-02-14T22:21:59.036Z,42.17
2023-02-14T22:24:25.669Z,42.14
2023-02-14T22:26:52.322Z,42.14
2023-02-14T22:29:18.972Z,42.16
2023-02-14T22:31:45.924Z,42.12
2023-02-14T22:34:12.661Z,42.14
2023-02-14T22:36:39.309Z,42.19
2023-02-14T22:39:06.176Z,42.16
2023-02-14T22:41:32.834Z,42.22
2023-02-14T22:43:59.472Z,42.08
2023-02-14T22:46:26.124Z,42.16
2023-02-14T22:48:53.012Z,42.06
2023-02-14T22:51:19.712Z,41.88
2023-02-14T22:53:46.361Z,42.11
2023-02-14T22:56:13.011Z,42.08
2023-02-14T22:58:39.690Z,42.10
2023-02-14T23:01:06.334Z,42.11
2023-02-14T23:03:32.996Z,42.02
2023-02-14T23:05:59.959Z,42.01
2023-02-14T23:08:26.854Z,42.10
2023-02-14T23:10:53.504Z,42.01
2023-02-14T23:13:20.150Z,42.09
2023-02-14T23:15:46.796Z,42.03
2023-02-14T23:18:13.441Z,42.03
2023-02-14T23:20:40.111Z,42.14
2023-02-14T23:23:06.749Z,42.13
2023-02-14T23:25:33.392Z,42.06
2023-02-14T23:28:00.042Z,42.21
2023-02-14T23:30:26.746Z,42.23
2023-02-14T23:32:53.411Z,42.11
2023-02-14T23:35:20.041Z,42.13
2023-02-14T23:37:46.686Z,42.21
2023-02-14T23:40:13.334Z,42.18
2023-02-14T23:42:40.013Z,42.15
2023-02-14T23:45:06.654Z,42.14
2023-02-14T23:47:34.452Z,42.23
2023-02-14T23:50:01.177Z,42.22
2023-02-14T23:52:27.843Z,42.27
2023-02-14T23:54:54.482Z,42.23
2023-02-14T23:57:21.117Z,42.07
2023-02-14T23:59:47.766Z,42.07
